»·PEaware :: N757PC KEUG-KOTH

N757PC :: KEUG-KOTH

FLIGHT INFORMATION

Flight Status: Arrived
Operator: Privately registered:
United States
More flights under this callsign
Pilot: Duane J. (9702)
Aircraft: Unknown
(LEG2)
More flights by this aircraft type
Origin: KEUG Mahlon Sweet
United States
Destination: KOTH North Bend Mun
United States
More flights between these airports :: More routes between these airports
Route: + OTH
File this flight plan on PilotEdge
Remarks: inst approach please. flying in full IMC.
Altitude:
(Current/Filed)
14,000ft
Speed:
(Current/Filed)
200kts
Departed: 27-Dec-17 05:47 PM
Arrived: 27-Dec-17 06:19 PM
Distance/Time
Traveled:
62nm/0:31
Distance/Time
To Go:
Arrived

Flight Plot

Page will automatically refresh every two minutes.

Flight plan parsing failed; only flown route is shown


Map Options




Map Legend


Flown Route
Filed Route
Departure Airport
Arrival Airport
Navaid (VOR, NDB)
Fix

Horizontal Profiles

Position Reports

Time Latitude Longitude Heading Altitude Ground
Speed
27-Dec-17 17:36 44.111125 -123.214672 268 372ft 0kts
27-Dec-17 17:37 44.111125 -123.214675 268 372ft 0kts
27-Dec-17 17:38 44.111125 -123.214678 268 372ft 0kts
27-Dec-17 17:39 44.111125 -123.214682 268 372ft 0kts
27-Dec-17 17:40 44.111125 -123.214685 268 372ft 0kts
27-Dec-17 17:41 44.111125 -123.214688 267 372ft 0kts
27-Dec-17 17:42 44.111125 -123.214691 267 372ft 0kts
27-Dec-17 17:43 44.111125 -123.214695 267 372ft 0kts
27-Dec-17 17:44 44.111125 -123.214698 267 372ft 0kts
27-Dec-17 17:45 44.111125 -123.214701 267 372ft 0kts
27-Dec-17 17:46 44.112511 -123.216315 266 372ft 14kts
27-Dec-17 17:47 44.118329 -123.217145 359 372ft 31kts
27-Dec-17 17:48 44.126586 -123.217209 357 372ft 27kts
27-Dec-17 17:49 44.134046 -123.217295 357 372ft 26kts
27-Dec-17 17:50 44.135405 -123.217685 264 372ft 0kts
27-Dec-17 17:51 44.135391 -123.218174 273 372ft 8kts
27-Dec-17 17:52 44.135079 -123.219136 178 372ft 0kts
27-Dec-17 17:53 44.118890 -123.218708 176 797ft 145kts
27-Dec-17 17:54 44.074604 -123.215961 180 3343ft 164kts
27-Dec-17 17:55 44.028160 -123.213378 181 5847ft 171kts
27-Dec-17 17:56 43.981959 -123.221522 238 8337ft 166kts
27-Dec-17 17:57 44.015153 -123.249776 20 9014ft 223kts
27-Dec-17 17:58 44.074489 -123.235647 1 9009ft 224kts
27-Dec-17 17:59 44.093116 -123.289022 237 9009ft 205kts
27-Dec-17 18:00 44.056875 -123.351309 232 9003ft 208kts
27-Dec-17 18:01 44.019580 -123.413214 232 9002ft 209kts
27-Dec-17 18:02 43.982060 -123.475471 232 9001ft 210kts
27-Dec-17 18:03 43.944552 -123.537715 232 9003ft 210kts
27-Dec-17 18:04 43.906977 -123.600028 232 8992ft 211kts
27-Dec-17 18:05 43.871206 -123.657150 233 10588ft 182kts
27-Dec-17 18:06 43.836000 -123.705921 232 12599ft 187kts
27-Dec-17 18:07 43.795598 -123.758335 232 13989ft 209kts
27-Dec-17 18:08 43.752585 -123.813973 232 13990ft 213kts
27-Dec-17 18:09 43.709707 -123.869445 232 13482ft 211kts
27-Dec-17 18:10 43.665626 -123.928443 232 12086ft 222kts
27-Dec-17 18:11 43.622688 -123.988709 232 10687ft 218kts
27-Dec-17 18:12 43.582208 -124.050284 232 9294ft 216kts
27-Dec-17 18:13 43.543178 -124.114036 232 7887ft 215kts
27-Dec-17 18:14 43.506761 -124.179033 234 6492ft 213kts
27-Dec-17 18:15 43.473495 -124.241854 245 6006ft 193kts
27-Dec-17 18:16 43.457726 -124.312107 254 5330ft 196kts
27-Dec-17 18:17 43.442898 -124.385666 254 3829ft 200kts
27-Dec-17 18:18 43.428383 -124.458363 254 3015ft 195kts
27-Dec-17 18:19 43.407742 -124.524483 203 2993ft 188kts
27-Dec-17 18:20 43.363807 -124.494787 144 2999ft 177kts
27-Dec-17 18:21 43.357337 -124.430680 84 3017ft 185kts
27-Dec-17 18:22 43.364463 -124.359285 52 2951ft 184kts
27-Dec-17 18:23 43.393743 -124.311788 60 1617ft 164kts
27-Dec-17 18:24 43.409172 -124.274248 61 442ft 89kts
27-Dec-17 18:25 43.417737 -124.253154 56 11ft 23kts
27-Dec-17 18:26 43.418638 -124.248427 58 11ft 18kts
27-Dec-17 18:27 43.415515 -124.244131 151 11ft 17kts
27-Dec-17 18:28 43.414601 -124.244277 290 11ft 9kts

Navigation Log

Ident Type
Flight plan parsing failed, navigation log unavailable